createdAt,value
2023-01-09T00:00:22.472Z,100.30
2023-01-09T00:05:49.969Z,96.30
2023-01-09T00:10:57.898Z,99.10
2023-01-09T00:16:05.921Z,97.90
2023-01-09T00:21:14.708Z,93.40
2023-01-09T00:26:23.182Z,88.60
2023-01-09T00:31:31.169Z,101.70
2023-01-09T00:36:38.618Z,90.60
2023-01-09T00:41:50.938Z,93.40
2023-01-09T00:47:11.311Z,98.20
2023-01-09T00:52:21.126Z,98.40
2023-01-09T00:57:32.192Z,91.10
2023-01-09T01:02:39.701Z,94.10
2023-01-09T01:07:48.372Z,91.60
2023-01-09T01:12:57.483Z,84.50
2023-01-09T01:18:09.481Z,84.20
2023-01-09T01:23:17.043Z,98.40
2023-01-09T01:28:24.802Z,87.00
2023-01-09T01:33:32.256Z,82.80
2023-01-09T01:38:39.862Z,86.00
2023-01-09T01:43:55.640Z,76.80
2023-01-09T01:49:09.354Z,66.50
2023-01-09T01:54:23.166Z,78.70
2023-01-09T02:04:39.873Z,73.90
2023-01-09T02:09:44.623Z,77.90
2023-01-09T02:14:50.286Z,68.80
2023-01-09T02:20:30.255Z,68.40
2023-01-09T02:25:56.550Z,74.20
2023-01-09T02:31:10.719Z,70.20
2023-01-09T02:36:23.602Z,76.60
2023-01-09T02:41:37.556Z,62.60
2023-01-09T02:46:41.489Z,69.20
2023-01-09T02:51:52.629Z,50.70
2023-01-09T03:02:51.260Z,61.90
2023-01-09T03:08:04.851Z,71.10
2023-01-09T03:13:18.002Z,76.90
2023-01-09T03:18:30.724Z,75.80
2023-01-09T03:23:53.797Z,60.30
2023-01-09T03:29:03.974Z,44.60
2023-01-09T03:34:11.420Z,75.70
2023-01-09T03:39:19.083Z,74.20
2023-01-09T03:44:27.618Z,70.60
2023-01-09T03:49:36.300Z,58.60
2023-01-09T03:54:45.922Z,67.40
2023-01-09T03:59:53.898Z,61.70
2023-01-09T04:05:02.730Z,55.00
2023-01-09T04:10:13.312Z,60.20
2023-01-09T04:15:20.960Z,68.20
2023-01-09T04:20:29.581Z,62.20
2023-01-09T04:25:37.651Z,64.60
2023-01-09T04:30:45.531Z,62.20
2023-01-09T04:35:52.939Z,75.00
2023-01-09T04:41:02.115Z,66.50
2023-01-09T04:46:10.309Z,65.70
2023-01-09T04:51:17.742Z,62.70
2023-01-09T04:56:25.932Z,59.70
2023-01-09T05:01:33.354Z,61.40
2023-01-09T05:06:41.764Z,69.90
2023-01-09T05:11:53.413Z,83.50
2023-01-09T05:17:01.492Z,64.70
2023-01-09T05:22:09.393Z,68.90
2023-01-09T05:27:17.203Z,68.30
2023-01-09T05:32:24.924Z,73.00
2023-01-09T05:37:32.365Z,66.90
2023-01-09T05:42:39.837Z,79.40
2023-01-09T05:47:48.661Z,67.60
2023-01-09T05:52:57.452Z,70.10
2023-01-09T05:58:05.326Z,66.40
2023-01-09T06:03:12.738Z,63.70
2023-01-09T06:08:20.876Z,77.90
2023-01-09T06:23:10.015Z,66.80
2023-01-09T06:28:18.783Z,64.70
2023-01-09T06:33:27.766Z,80.90
2023-01-09T06:38:35.391Z,70.10
2023-01-09T06:43:43.199Z,68.00
2023-01-09T06:48:50.593Z,65.40
2023-01-09T06:54:01.297Z,62.40
2023-01-09T06:59:10.310Z,77.60
2023-01-09T07:04:22.276Z,69.80
2023-01-09T07:09:31.848Z,61.80
2023-01-09T07:14:40.065Z,59.90
2023-01-09T07:19:47.380Z,54.80
2023-01-09T07:24:56.286Z,61.20
2023-01-09T07:30:07.245Z,57.90
2023-01-09T07:35:15.255Z,54.10
2023-01-09T07:40:22.990Z,56.30
2023-01-09T07:45:31.133Z,53.40
2023-01-09T07:50:38.596Z,57.70
2023-01-09T08:04:17.556Z,55.50
2023-01-09T08:09:26.496Z,46.60
2023-01-09T08:14:36.428Z,45.40
2023-01-09T08:19:44.705Z,53.30
2023-01-09T08:24:52.120Z,47.00
2023-01-09T08:30:00.165Z,49.60
2023-01-09T08:35:09.178Z,50.10
2023-01-09T08:40:18.991Z,50.60
2023-01-09T08:45:44.689Z,47.90
2023-01-09T08:50:55.317Z,45.30
2023-01-09T08:56:02.966Z,39.90
2023-01-09T09:01:11.822Z,33.20
2023-01-09T09:06:21.229Z,41.20
2023-01-09T09:11:30.622Z,46.80
2023-01-09T09:16:38.214Z,56.30
2023-01-09T09:21:45.856Z,46.40
2023-01-09T09:26:53.435Z,45.70
2023-01-09T09:32:02.083Z,35.30
2023-01-09T09:37:10.373Z,45.60
2023-01-09T09:42:58.044Z,38.10
2023-01-09T09:48:20.631Z,39.90
2023-01-09T09:53:33.362Z,38.10
2023-01-09T09:58:43.469Z,37.10
2023-01-09T10:03:53.624Z,40.50
2023-01-09T10:09:10.160Z,44.40
2023-01-09T10:14:24.374Z,41.60
2023-01-09T10:19:47.926Z,40.30
2023-01-09T10:25:14.069Z,39.10
2023-01-09T10:30:30.365Z,36.50
2023-01-09T10:36:12.956Z,39.80
2023-01-09T10:41:26.353Z,32.20
2023-01-09T10:46:40.741Z,31.10
2023-01-09T10:51:50.789Z,28.60
2023-01-09T10:57:02.839Z,27.00
2023-01-09T11:02:25.961Z,28.10
2023-01-09T11:07:38.209Z,26.30
2023-01-09T11:12:45.947Z,23.10
2023-01-09T11:17:55.943Z,24.40
2023-01-09T11:23:03.189Z,23.00
2023-01-09T11:28:13.492Z,21.00
2023-01-09T11:33:25.798Z,20.50
2023-01-09T11:38:46.633Z,22.70
2023-01-09T11:44:00.717Z,23.20
2023-01-09T11:49:22.905Z,24.00
2023-01-09T11:54:33.371Z,21.30
2023-01-09T12:04:41.274Z,22.10
2023-01-09T12:09:56.429Z,21.70
2023-01-09T12:15:21.127Z,23.00
2023-01-09T12:20:44.651Z,30.40
2023-01-09T12:28:49.425Z,33.50
2023-01-09T12:34:05.795Z,34.30
2023-01-09T12:39:26.066Z,30.40
2023-01-09T12:45:00.057Z,30.30
2023-01-09T12:50:21.802Z,31.40
2023-01-09T12:55:34.657Z,35.80
2023-01-09T13:00:45.459Z,32.40
2023-01-09T13:05:54.679Z,32.40
2023-01-09T13:11:19.487Z,28.50
2023-01-09T13:16:32.276Z,30.00
2023-01-09T13:21:41.640Z,34.60
2023-01-09T13:26:52.326Z,35.30
2023-01-09T13:32:30.568Z,33.40
2023-01-09T13:37:40.469Z,36.50
2023-01-09T13:42:56.468Z,27.60
2023-01-09T13:48:40.920Z,28.80
2023-01-09T13:53:49.624Z,29.10
2023-01-09T13:59:04.263Z,33.70
2023-01-09T14:04:39.313Z,29.30
2023-01-09T14:09:50.931Z,40.30
2023-01-09T14:15:02.425Z,33.80
2023-01-09T14:20:25.117Z,35.70
2023-01-09T14:25:33.816Z,36.60
2023-01-09T14:31:02.114Z,45.20
2023-01-09T14:36:15.841Z,40.00
2023-01-09T14:41:45.929Z,36.10
2023-01-09T14:46:55.741Z,41.60
2023-01-09T14:52:09.636Z,39.00
2023-01-09T14:57:34.258Z,51.50
2023-01-09T15:02:42.786Z,48.20
2023-01-09T15:07:55.835Z,48.60
2023-01-09T15:13:06.656Z,49.50
2023-01-09T15:18:23.720Z,47.90
2023-01-09T15:23:32.636Z,47.30
2023-01-09T15:28:45.100Z,44.90
2023-01-09T15:33:54.188Z,42.80
2023-01-09T15:39:02.311Z,43.90
2023-01-09T15:44:17.929Z,33.80
2023-01-09T15:49:25.921Z,17.30
2023-01-09T15:54:35.558Z,21.00
2023-01-09T15:59:42.770Z,19.60
2023-01-09T16:04:51.656Z,18.60
2023-01-09T16:09:59.424Z,17.70
2023-01-09T16:15:08.226Z,19.10
2023-01-09T16:20:28.092Z,15.50
2023-01-09T16:25:37.140Z,13.90
2023-01-09T16:30:55.112Z,15.40
2023-01-09T16:36:03.626Z,17.90
2023-01-09T16:41:33.323Z,18.20
2023-01-09T16:46:43.775Z,17.50
2023-01-09T16:51:51.628Z,14.30
2023-01-09T16:56:59.469Z,15.40
2023-01-09T17:02:12.189Z,14.20
2023-01-09T17:07:20.733Z,15.90
2023-01-09T17:12:28.534Z,13.80
2023-01-09T17:17:36.142Z,15.10
2023-01-09T17:22:43.378Z,19.00
2023-01-09T17:28:08.002Z,16.40
2023-01-09T17:33:19.128Z,15.30
2023-01-09T17:38:26.645Z,14.60
2023-01-09T17:43:33.626Z,16.40
2023-01-09T17:48:40.629Z,16.30
2023-01-09T18:02:59.909Z,19.00
2023-01-09T18:08:10.361Z,18.20
2023-01-09T18:13:20.244Z,20.20
2023-01-09T18:18:28.010Z,16.60
2023-01-09T18:23:36.537Z,21.50
2023-01-09T18:28:44.599Z,19.60
2023-01-09T18:33:57.146Z,19.50
2023-01-09T18:39:09.811Z,25.00
2023-01-09T18:44:22.897Z,21.80
2023-01-09T18:49:32.255Z,26.20
2023-01-09T18:54:42.885Z,23.70
2023-01-09T18:59:50.244Z,22.40
2023-01-09T19:04:57.851Z,27.40
2023-01-09T19:10:06.309Z,27.20
2023-01-09T19:15:15.934Z,29.30
2023-01-09T19:20:23.950Z,27.20
2023-01-09T19:25:34.719Z,20.90
2023-01-09T19:40:33.064Z,28.30
2023-01-09T19:45:39.611Z,30.80
2023-01-09T19:50:44.417Z,34.10
2023-01-09T19:55:49.227Z,32.00
2023-01-09T20:00:55.770Z,34.00
2023-01-09T20:06:05.158Z,27.90
2023-01-09T20:11:09.670Z,31.30
2023-01-09T20:16:17.301Z,33.40
2023-01-09T20:21:25.376Z,31.30
2023-01-09T20:26:32.669Z,33.20
2023-01-09T20:31:37.524Z,37.30
2023-01-09T20:36:42.153Z,32.30
2023-01-09T20:41:46.472Z,35.20
2023-01-09T20:46:52.996Z,33.00
2023-01-09T20:51:58.257Z,31.80
2023-01-09T20:57:03.020Z,34.00
2023-01-09T21:02:12.877Z,37.30
2023-01-09T21:07:17.216Z,36.20
2023-01-09T21:12:35.199Z,38.00
2023-01-09T21:17:40.507Z,40.90
2023-01-09T21:22:45.358Z,35.30
2023-01-09T21:27:50.559Z,34.00
2023-01-09T21:32:56.251Z,38.80
2023-01-09T21:38:02.375Z,39.10
2023-01-09T21:43:26.321Z,41.20
2023-01-09T21:48:30.726Z,38.10
2023-01-09T21:53:34.855Z,45.10
2023-01-09T21:58:39.160Z,45.00
2023-01-09T22:03:43.369Z,38.60
2023-01-09T22:08:48.039Z,38.20
2023-01-09T22:13:53.868Z,32.60
2023-01-09T22:18:59.376Z,35.60
2023-01-09T22:24:04.680Z,34.20
2023-01-09T22:29:09.903Z,48.50
2023-01-09T22:34:17.709Z,39.20
2023-01-09T22:39:25.511Z,44.80
2023-01-09T22:44:30.672Z,38.80
2023-01-09T22:49:52.021Z,43.40
2023-01-09T22:54:58.319Z,44.40
2023-01-09T23:00:08.285Z,47.50
2023-01-09T23:05:12.345Z,50.90
2023-01-09T23:10:17.148Z,38.70
2023-01-09T23:15:22.273Z,47.10
2023-01-09T23:20:27.537Z,48.50
2023-01-09T23:25:31.765Z,40.20
2023-01-09T23:30:36.617Z,38.80
2023-01-09T23:35:41.102Z,49.60
2023-01-09T23:40:46.295Z,50.70
2023-01-09T23:45:52.527Z,47.30
2023-01-09T23:50:58.444Z,47.80
2023-01-09T23:56:02.874Z,55.60
